Time,TemperatureF,DewpointF,PressureIn,WindDirection,WindDirectionDegrees,WindSpeedMPH,WindSpeedGustMPH,Humidity,HourlyPrecipIn,Conditions,Clouds,dailyrainin,SolarRadiationWatts/m^2,SoftwareType,DateUTC
2013-06-05 00:02:00,53.6,38.0,30.38,NNE,28,9.0,11.0,55,0.00,,,0.00,0,weatherlink.com 1.10,2013-06-05 06:02:00,
2013-06-05 00:17:00,53.3,38.0,30.38,NE,40,8.0,10.0,57,0.00,,,0.00,0,weatherlink.com 1.10,2013-06-05 06:17:00,
2013-06-05 00:32:00,53.0,38.0,30.38,NE,50,6.0,10.0,57,0.00,,,0.00,0,weatherlink.com 1.10,2013-06-05 06:32:00,
2013-06-05 00:47:00,52.6,38.0,30.38,NE,37,8.0,10.0,58,0.00,,,0.00,0,weatherlink.com 1.10,2013-06-05 06:47:00,
2013-06-05 01:02:00,52.4,38.0,30.38,NE,34,7.0,10.0,58,0.00,,,0.00,0,weatherlink.com 1.10,2013-06-05 07:02:00,
2013-06-05 01:17:00,51.9,38.0,30.39,NNE,22,5.0,8.0,59,0.00,,,0.00,0,weatherlink.com 1.10,2013-06-05 07:17:00,
2013-06-05 01:32:00,50.6,38.0,30.39,NE,34,7.0,10.0,62,0.00,,,0.00,0,weatherlink.com 1.10,2013-06-05 07:32:00,
2013-06-05 01:47:00,50.1,38.0,30.39,NE,39,8.0,9.0,64,0.00,,,0.00,0,weatherlink.com 1.10,2013-06-05 07:47:00,
2013-06-05 02:02:00,49.9,38.0,30.39,NNE,24,6.0,11.0,64,0.00,,,0.00,0,weatherlink.com 1.10,2013-06-05 08:02:00,
2013-06-05 02:17:00,49.2,38.0,30.39,NNE,28,6.0,6.0,65,0.00,,,0.00,0,weatherlink.com 1.10,2013-06-05 08:17:00,
2013-06-05 02:32:00,48.9,38.0,30.39,NE,38,5.0,7.0,66,0.00,,,0.00,0,weatherlink.com 1.10,2013-06-05 08:32:00,
2013-06-05 02:47:00,49.0,38.0,30.39,NE,47,4.0,6.0,66,0.00,,,0.00,0,weatherlink.com 1.10,2013-06-05 08:47:00,
2013-06-05 03:02:00,49.2,38.0,30.39,NNE,24,2.0,4.0,65,0.00,,,0.00,0,weatherlink.com 1.10,2013-06-05 09:02:00,
2013-06-05 03:17:00,48.2,38.0,30.39,NNE,24,0.0,3.0,67,0.00,,,0.00,0,weatherlink.com 1.10,2013-06-05 09:17:00,
2013-06-05 03:32:00,47.0,38.0,30.39,NNE,27,0.0,1.0,71,0.00,,,0.00,0,weatherlink.com 1.10,2013-06-05 09:32:00,
2013-06-05 03:47:00,46.9,38.0,30.39,NNE,27,0.0,2.0,72,0.00,,,0.00,0,weatherlink.com 1.10,2013-06-05 09:47:00,
2013-06-05 04:02:00,46.2,39.0,30.39,NNE,27,0.0,0.0,75,0.00,,,0.00,0,weatherlink.com 1.10,2013-06-05 10:02:00,
2013-06-05 04:17:00,45.7,39.0,30.39,NNE,27,0.0,0.0,77,0.00,,,0.00,0,weatherlink.com 1.10,2013-06-05 10:17:00,
2013-06-05 04:32:00,45.5,39.0,30.40,NNE,27,0.0,0.0,78,0.00,,,0.00,0,weatherlink.com 1.10,2013-06-05 10:32:00,
2013-06-05 04:47:00,45.3,39.0,30.40,NNE,27,0.0,0.0,78,0.00,,,0.00,0,weatherlink.com 1.10,2013-06-05 10:47:00,
2013-06-05 05:02:00,45.5,38.0,30.39,NNE,27,0.0,0.0,75,0.00,,,0.00,0,weatherlink.com 1.10,2013-06-05 11:02:00,
2013-06-05 05:17:00,45.7,38.0,30.39,NNE,27,0.0,1.0,75,0.00,,,0.00,0,weatherlink.com 1.10,2013-06-05 11:17:00,
2013-06-05 05:32:00,45.5,38.0,30.40,NNE,27,0.0,2.0,75,0.00,,,0.00,0,weatherlink.com 1.10,2013-06-05 11:32:00,
2013-06-05 05:48:00,44.2,38.0,30.39,NNE,27,0.0,1.0,78,0.00,,,0.00,5,weatherlink.com 1.10,2013-06-05 11:48:00,
2013-06-05 06:03:00,43.6,38.0,30.40,NNE,27,0.0,0.0,80,0.00,,,0.00,9,weatherlink.com 1.10,2013-06-05 12:03:00,
2013-06-05 06:18:00,43.2,38.0,30.40,NNE,27,0.0,0.0,81,0.00,,,0.00,14,weatherlink.com 1.10,2013-06-05 12:18:00,
2013-06-05 06:33:00,43.2,38.0,30.40,NNE,27,0.0,0.0,81,0.00,,,0.00,16,weatherlink.com 1.10,2013-06-05 12:33:00,
2013-06-05 06:48:00,43.3,38.0,30.40,NNE,27,1.0,2.0,80,0.00,,,0.00,19,weatherlink.com 1.10,2013-06-05 12:48:00,
2013-06-05 07:03:00,44.3,39.0,30.40,NE,36,1.0,2.0,80,0.00,,,0.00,72,weatherlink.com 1.10,2013-06-05 13:03:00,
2013-06-05 07:18:00,45.1,39.0,30.40,NE,36,1.0,2.0,78,0.00,,,0.00,167,weatherlink.com 1.10,2013-06-05 13:18:00,
2013-06-05 07:33:00,45.8,39.0,30.40,NE,34,3.0,4.0,76,0.00,,,0.00,241,weatherlink.com 1.10,2013-06-05 13:33:00,
2013-06-05 07:48:00,46.4,39.0,30.40,NNE,19,2.0,4.0,76,0.00,,,0.00,283,weatherlink.com 1.10,2013-06-05 13:48:00,
2013-06-05 08:03:00,47.0,39.0,30.40,NNE,19,0.0,3.0,75,0.00,,,0.00,323,weatherlink.com 1.10,2013-06-05 14:03:00,
2013-06-05 08:18:00,47.0,40.0,30.40,NNE,16,2.0,4.0,76,0.00,,,0.00,367,weatherlink.com 1.10,2013-06-05 14:18:00,
2013-06-05 08:33:00,47.8,40.0,30.40,NNE,16,2.0,3.0,75,0.00,,,0.00,411,weatherlink.com 1.10,2013-06-05 14:33:00,
2013-06-05 08:48:00,49.3,41.0,30.39,North,5,2.0,3.0,72,0.00,,,0.00,454,weatherlink.com 1.10,2013-06-05 14:48:00,
2013-06-05 09:03:00,50.1,41.0,30.39,West,272,3.0,6.0,72,0.00,,,0.00,487,weatherlink.com 1.10,2013-06-05 15:03:00,
2013-06-05 09:18:00,50.3,41.0,30.39,West,274,0.0,4.0,71,0.00,,,0.00,531,weatherlink.com 1.10,2013-06-05 15:18:00,
2013-06-05 09:33:00,51.8,41.0,30.38,WSW,250,1.0,4.0,68,0.00,,,0.00,571,weatherlink.com 1.10,2013-06-05 15:33:00,
2013-06-05 09:48:00,52.1,42.0,30.38,SW,222,5.0,6.0,68,0.00,,,0.00,610,weatherlink.com 1.10,2013-06-05 15:48:00,
2013-06-05 10:03:00,53.9,43.0,30.37,SW,227,3.0,7.0,66,0.00,,,0.00,657,weatherlink.com 1.10,2013-06-05 16:03:00,
2013-06-05 10:19:00,55.2,42.0,30.37,SSW,198,6.0,8.0,62,0.00,,,0.00,698,weatherlink.com 1.10,2013-06-05 16:19:00,
2013-06-05 10:34:00,56.3,42.0,30.36,South,185,1.0,8.0,59,0.00,,,0.00,729,weatherlink.com 1.10,2013-06-05 16:34:00,
2013-06-05 10:49:00,57.6,42.0,30.35,SSW,201,3.0,6.0,56,0.00,,,0.00,758,weatherlink.com 1.10,2013-06-05 16:49:00,
2013-06-05 11:04:00,59.5,43.0,30.35,West,266,4.0,4.0,54,0.00,,,0.00,780,weatherlink.com 1.10,2013-06-05 17:04:00,
2013-06-05 11:19:00,59.9,42.0,30.34,WNW,283,1.0,6.0,51,0.00,,,0.00,800,weatherlink.com 1.10,2013-06-05 17:19:00,
2013-06-05 11:34:00,61.5,41.0,30.34,WSW,239,6.0,6.0,47,0.00,,,0.00,821,weatherlink.com 1.10,2013-06-05 17:34:00,
2013-06-05 11:49:00,61.9,41.0,30.33,SW,229,4.0,7.0,46,0.00,,,0.00,842,weatherlink.com 1.10,2013-06-05 17:49:00,
2013-06-05 12:04:00,63.7,41.0,30.32,SSW,202,4.0,12.0,44,0.00,,,0.00,861,weatherlink.com 1.10,2013-06-05 18:04:00,
2013-06-05 12:19:00,63.9,40.0,30.32,WSW,243,6.0,11.0,41,0.00,,,0.00,877,weatherlink.com 1.10,2013-06-05 18:19:00,
2013-06-05 12:34:00,64.7,40.0,30.31,WSW,253,3.0,8.0,40,0.00,,,0.00,889,weatherlink.com 1.10,2013-06-05 18:34:00,
2013-06-05 12:49:00,66.3,40.0,30.31,WSW,246,4.0,7.0,39,0.00,,,0.00,900,weatherlink.com 1.10,2013-06-05 18:49:00,
2013-06-05 13:04:00,67.4,41.0,30.30,North,360,2.0,8.0,39,0.00,,,0.00,905,weatherlink.com 1.10,2013-06-05 19:04:00,
2013-06-05 13:19:00,68.5,42.0,30.29,North,5,2.0,8.0,39,0.00,,,0.00,914,weatherlink.com 1.10,2013-06-05 19:19:00,
2013-06-05 13:34:00,68.3,44.0,30.29,WNW,302,8.0,11.0,41,0.00,,,0.00,905,weatherlink.com 1.10,2013-06-05 19:34:00,
2013-06-05 13:49:00,68.3,44.0,30.28,NW,321,5.0,11.0,42,0.00,,,0.00,914,weatherlink.com 1.10,2013-06-05 19:49:00,
2013-06-05 14:04:00,69.4,43.0,30.28,NW,311,5.0,12.0,38,0.00,,,0.00,911,weatherlink.com 1.10,2013-06-05 20:04:00,
2013-06-05 14:20:00,69.7,42.0,30.27,NNW,340,9.0,14.0,37,0.00,,,0.00,912,weatherlink.com 1.10,2013-06-05 20:20:00,
2013-06-05 14:35:00,69.3,42.0,30.26,NW,317,0.0,10.0,37,0.00,,,0.00,237,weatherlink.com 1.10,2013-06-05 20:35:00,
2013-06-05 14:50:00,68.5,42.0,30.26,NW,306,5.0,9.0,39,0.00,,,0.00,265,weatherlink.com 1.10,2013-06-05 20:50:00,
2013-06-05 15:05:00,68.6,43.0,30.26,WSW,254,4.0,9.0,39,0.00,,,0.00,221,weatherlink.com 1.10,2013-06-05 21:05:00,
2013-06-05 15:20:00,68.9,43.0,30.25,SW,223,6.0,7.0,40,0.00,,,0.00,251,weatherlink.com 1.10,2013-06-05 21:20:00,
2013-06-05 15:35:00,69.8,44.0,30.25,South,171,3.0,7.0,39,0.00,,,0.00,1056,weatherlink.com 1.10,2013-06-05 21:35:00,
2013-06-05 15:50:00,72.8,43.0,30.24,ESE,107,5.0,7.0,34,0.00,,,0.00,1086,weatherlink.com 1.10,2013-06-05 21:50:00,
2013-06-05 16:05:00,72.4,43.0,30.23,East,90,1.0,8.0,35,0.00,,,0.00,956,weatherlink.com 1.10,2013-06-05 22:05:00,
2013-06-05 16:35:00,73.3,43.0,30.22,ENE,76,5.0,9.0,34,0.00,,,0.00,775,weatherlink.com 1.10,2013-06-05 22:35:00,
2013-06-05 16:50:00,74.7,42.0,30.21,SSE,167,2.0,12.0,31,0.00,,,0.00,721,weatherlink.com 1.10,2013-06-05 22:50:00,
2013-06-05 17:05:00,74.2,41.0,30.21,SW,234,6.0,13.0,30,0.00,,,0.00,693,weatherlink.com 1.10,2013-06-05 23:05:00,
2013-06-05 17:20:00,74.5,41.0,30.20,SW,221,11.0,14.0,30,0.00,,,0.00,647,weatherlink.com 1.10,2013-06-05 23:20:00,
2013-06-05 17:35:00,73.8,41.0,30.20,WSW,249,8.0,11.0,31,0.00,,,0.00,610,weatherlink.com 1.10,2013-06-05 23:35:00,
2013-06-05 17:50:00,73.9,41.0,30.19,SW,232,7.0,9.0,31,0.00,,,0.00,568,weatherlink.com 1.10,2013-06-05 23:50:00,
2013-06-05 18:05:00,73.8,43.0,30.19,SW,236,9.0,11.0,33,0.00,,,0.00,513,weatherlink.com 1.10,2013-06-06 00:05:00,
2013-06-05 18:20:00,73.5,43.0,30.18,WSW,240,6.0,11.0,34,0.00,,,0.00,380,weatherlink.com 1.10,2013-06-06 00:20:00,
2013-06-05 18:35:00,73.2,43.0,30.18,SW,219,4.0,7.0,34,0.00,,,0.00,100,weatherlink.com 1.10,2013-06-06 00:35:00,
2013-06-05 18:50:00,73.7,44.0,30.17,SW,221,5.0,6.0,34,0.00,,,0.00,323,weatherlink.com 1.10,2013-06-06 00:50:00,
2013-06-05 19:05:00,74.0,42.0,30.17,SSW,201,6.0,7.0,32,0.00,,,0.00,257,weatherlink.com 1.10,2013-06-06 01:05:00,
2013-06-05 19:20:00,74.3,43.0,30.16,SW,221,7.0,10.0,33,0.00,,,0.00,336,weatherlink.com 1.10,2013-06-06 01:20:00,
2013-06-05 19:35:00,74.2,42.0,30.16,South,188,6.0,8.0,32,0.00,,,0.00,192,weatherlink.com 1.10,2013-06-06 01:35:00,
2013-06-05 19:50:00,74.1,44.0,30.16,NNW,327,0.0,6.0,34,0.00,,,0.00,232,weatherlink.com 1.10,2013-06-06 01:50:00,
2013-06-05 20:05:00,75.2,41.0,30.16,North,5,3.0,7.0,29,0.00,,,0.00,192,weatherlink.com 1.10,2013-06-06 02:05:00,
2013-06-05 20:20:00,75.1,42.0,30.17,NW,308,2.0,9.0,31,0.00,,,0.00,151,weatherlink.com 1.10,2013-06-06 02:20:00,
2013-06-05 20:35:00,74.4,43.0,30.17,NW,305,0.0,11.0,32,0.00,,,0.00,70,weatherlink.com 1.10,2013-06-06 02:35:00,
2013-06-05 20:50:00,73.7,40.0,30.17,NW,315,6.0,11.0,30,0.00,,,0.00,33,weatherlink.com 1.10,2013-06-06 02:50:00,
2013-06-05 21:05:00,73.1,39.0,30.17,North,355,12.0,17.0,29,0.00,,,0.00,14,weatherlink.com 1.10,2013-06-06 03:05:00,
2013-06-05 21:20:00,71.6,37.0,30.18,NNW,333,10.0,15.0,28,0.00,,,0.00,5,weatherlink.com 1.10,2013-06-06 03:20:00,
2013-06-05 21:35:00,71.2,36.0,30.18,North,355,9.0,14.0,28,0.00,,,0.00,0,weatherlink.com 1.10,2013-06-06 03:35:00,
2013-06-05 21:50:00,71.0,36.0,30.19,NNW,333,15.0,15.0,28,0.00,,,0.00,0,weatherlink.com 1.10,2013-06-06 03:50:00,
2013-06-05 22:05:00,70.5,35.0,30.19,North,5,7.0,9.0,27,0.00,,,0.00,0,weatherlink.com 1.10,2013-06-06 04:05:00,
2013-06-05 22:20:00,70.4,35.0,30.19,NW,325,5.0,11.0,27,0.00,,,0.00,0,weatherlink.com 1.10,2013-06-06 04:20:00,
2013-06-05 22:35:00,71.0,33.0,30.20,NE,55,3.0,14.0,25,0.00,,,0.00,0,weatherlink.com 1.10,2013-06-06 04:35:00,
2013-06-05 22:50:00,68.2,34.0,30.20,East,82,5.0,7.0,28,0.00,,,0.00,0,weatherlink.com 1.10,2013-06-06 04:50:00,
2013-06-05 23:05:00,68.8,32.0,30.20,East,79,3.0,11.0,26,0.00,,,0.00,0,weatherlink.com 1.10,2013-06-06 05:05:00,
2013-06-05 23:20:00,69.0,31.0,30.20,East,79,6.0,8.0,24,0.00,,,0.00,0,weatherlink.com 1.10,2013-06-06 05:20:00,
2013-06-05 23:35:00,68.8,30.0,30.21,ESE,117,3.0,10.0,24,0.00,,,0.00,0,weatherlink.com 1.10,2013-06-06 05:35:00,
2013-06-05 23:50:00,70.6,31.0,30.21,SW,236,2.0,13.0,23,0.00,,,0.00,0,weatherlink.com 1.10,2013-06-06 05:50:00,